sensor_id;sensor_type;location;lat;lon;timestamp;P1;durP1;ratioP1;P2;durP2;ratioP2
59300;SDS011;45073;52.740;6.784;2023-04-01T00:02:18;7.50;;;2.72;;
59300;SDS011;45073;52.740;6.784;2023-04-01T00:04:44;7.45;;;2.38;;
59300;SDS011;45073;52.740;6.784;2023-04-01T00:07:10;7.35;;;2.60;;
59300;SDS011;45073;52.740;6.784;2023-04-01T00:09:36;8.52;;;2.42;;
59300;SDS011;45073;52.740;6.784;2023-04-01T00:12:02;8.73;;;3.13;;
59300;SDS011;45073;52.740;6.784;2023-04-01T00:14:28;6.18;;;2.28;;
59300;SDS011;45073;52.740;6.784;2023-04-01T00:16:54;7.35;;;2.50;;
59300;SDS011;45073;52.740;6.784;2023-04-01T00:19:20;8.52;;;2.70;;
59300;SDS011;45073;52.740;6.784;2023-04-01T00:21:45;6.63;;;2.30;;
59300;SDS011;45073;52.740;6.784;2023-04-01T00:24:11;7.10;;;2.63;;
59300;SDS011;45073;52.740;6.784;2023-04-01T00:26:37;9.45;;;3.25;;
59300;SDS011;45073;52.740;6.784;2023-04-01T00:29:02;8.75;;;3.13;;
59300;SDS011;45073;52.740;6.784;2023-04-01T00:31:28;7.68;;;3.20;;
59300;SDS011;45073;52.740;6.784;2023-04-01T00:33:54;6.65;;;3.00;;
59300;SDS011;45073;52.740;6.784;2023-04-01T00:36:21;7.93;;;3.15;;
59300;SDS011;45073;52.740;6.784;2023-04-01T00:38:48;8.40;;;2.78;;
59300;SDS011;45073;52.740;6.784;2023-04-01T00:41:14;7.38;;;2.55;;
59300;SDS011;45073;52.740;6.784;2023-04-01T00:43:42;7.82;;;2.60;;
59300;SDS011;45073;52.740;6.784;2023-04-01T00:46:10;7.43;;;2.63;;
59300;SDS011;45073;52.740;6.784;2023-04-01T00:48:36;6.50;;;2.95;;
59300;SDS011;45073;52.740;6.784;2023-04-01T00:51:14;7.40;;;2.78;;
59300;SDS011;45073;52.740;6.784;2023-04-01T00:53:44;6.63;;;2.65;;
59300;SDS011;45073;52.740;6.784;2023-04-01T00:56:14;6.40;;;2.53;;
59300;SDS011;45073;52.740;6.784;2023-04-01T00:58:44;5.78;;;2.30;;
59300;SDS011;45073;52.740;6.784;2023-04-01T01:01:13;6.22;;;2.47;;
59300;SDS011;45073;52.740;6.784;2023-04-01T01:03:39;8.23;;;2.75;;
59300;SDS011;45073;52.740;6.784;2023-04-01T01:12:04;5.82;;;2.42;;
59300;SDS011;45073;52.740;6.784;2023-04-01T01:14:44;6.60;;;2.05;;
59300;SDS011;45073;52.740;6.784;2023-04-01T01:22:42;5.40;;;2.13;;
59300;SDS011;45073;52.740;6.784;2023-04-01T01:30:51;6.95;;;2.45;;
59300;SDS011;45073;52.740;6.784;2023-04-01T01:36:33;8.05;;;2.55;;
59300;SDS011;45073;52.740;6.784;2023-04-01T01:39:03;8.30;;;2.85;;
59300;SDS011;45073;52.740;6.784;2023-04-01T01:41:31;7.07;;;2.80;;
59300;SDS011;45073;52.740;6.784;2023-04-01T01:43:58;8.85;;;3.00;;
59300;SDS011;45073;52.740;6.784;2023-04-01T01:46:27;7.88;;;2.90;;
59300;SDS011;45073;52.740;6.784;2023-04-01T01:48:55;7.53;;;3.20;;
59300;SDS011;45073;52.740;6.784;2023-04-01T01:51:22;7.50;;;3.08;;
59300;SDS011;45073;52.740;6.784;2023-04-01T01:53:49;7.55;;;3.75;;
59300;SDS011;45073;52.740;6.784;2023-04-01T01:56:15;8.00;;;3.30;;
59300;SDS011;45073;52.740;6.784;2023-04-01T01:58:49;8.57;;;3.17;;
59300;SDS011;45073;52.740;6.784;2023-04-01T02:01:20;9.82;;;2.90;;
59300;SDS011;45073;52.740;6.784;2023-04-01T02:03:49;6.95;;;2.90;;
59300;SDS011;45073;52.740;6.784;2023-04-01T02:06:18;7.88;;;2.78;;
59300;SDS011;45073;52.740;6.784;2023-04-01T02:08:56;6.90;;;3.10;;
59300;SDS011;45073;52.740;6.784;2023-04-01T02:11:27;8.02;;;3.15;;
59300;SDS011;45073;52.740;6.784;2023-04-01T02:15:05;8.32;;;3.00;;
59300;SDS011;45073;52.740;6.784;2023-04-01T02:17:07;6.68;;;3.42;;
59300;SDS011;45073;52.740;6.784;2023-04-01T02:22:21;7.43;;;2.60;;
59300;SDS011;45073;52.740;6.784;2023-04-01T02:24:53;6.93;;;2.60;;
59300;SDS011;45073;52.740;6.784;2023-04-01T02:27:21;8.07;;;2.95;;
59300;SDS011;45073;52.740;6.784;2023-04-01T02:29:48;7.63;;;2.60;;
59300;SDS011;45073;52.740;6.784;2023-04-01T02:32:14;6.30;;;2.58;;
59300;SDS011;45073;52.740;6.784;2023-04-01T02:34:42;6.65;;;2.75;;
59300;SDS011;45073;52.740;6.784;2023-04-01T02:37:08;6.75;;;2.53;;
59300;SDS011;45073;52.740;6.784;2023-04-01T02:39:35;7.53;;;3.28;;
59300;SDS011;45073;52.740;6.784;2023-04-01T02:42:01;8.00;;;2.75;;
59300;SDS011;45073;52.740;6.784;2023-04-01T02:44:26;6.75;;;2.83;;
59300;SDS011;45073;52.740;6.784;2023-04-01T02:46:52;8.50;;;3.30;;
59300;SDS011;45073;52.740;6.784;2023-04-01T02:49:18;7.95;;;3.13;;
59300;SDS011;45073;52.740;6.784;2023-04-01T02:51:43;7.10;;;3.25;;
59300;SDS011;45073;52.740;6.784;2023-04-01T02:54:09;8.60;;;3.85;;
59300;SDS011;45073;52.740;6.784;2023-04-01T02:56:34;7.97;;;3.78;;
59300;SDS011;45073;52.740;6.784;2023-04-01T02:59:00;7.82;;;3.10;;
59300;SDS011;45073;52.740;6.784;2023-04-01T03:01:26;9.93;;;3.88;;
59300;SDS011;45073;52.740;6.784;2023-04-01T03:03:51;8.10;;;3.80;;
59300;SDS011;45073;52.740;6.784;2023-04-01T03:06:17;9.07;;;3.53;;
59300;SDS011;45073;52.740;6.784;2023-04-01T03:08:43;9.77;;;3.53;;
59300;SDS011;45073;52.740;6.784;2023-04-01T03:11:09;10.60;;;3.78;;
59300;SDS011;45073;52.740;6.784;2023-04-01T03:13:36;7.88;;;3.45;;
59300;SDS011;45073;52.740;6.784;2023-04-01T03:16:02;7.85;;;4.00;;
59300;SDS011;45073;52.740;6.784;2023-04-01T03:18:27;8.35;;;3.65;;
59300;SDS011;45073;52.740;6.784;2023-04-01T03:20:53;7.72;;;4.05;;
59300;SDS011;45073;52.740;6.784;2023-04-01T03:23:19;9.07;;;4.38;;
59300;SDS011;45073;52.740;6.784;2023-04-01T03:25:46;9.32;;;3.97;;
59300;SDS011;45073;52.740;6.784;2023-04-01T03:28:12;8.27;;;3.70;;
59300;SDS011;45073;52.740;6.784;2023-04-01T03:30:38;8.45;;;4.45;;
59300;SDS011;45073;52.740;6.784;2023-04-01T03:33:05;10.13;;;4.55;;
59300;SDS011;45073;52.740;6.784;2023-04-01T03:35:31;9.73;;;4.55;;
59300;SDS011;45073;52.740;6.784;2023-04-01T03:37:57;10.65;;;5.57;;
59300;SDS011;45073;52.740;6.784;2023-04-01T03:40:23;9.98;;;5.13;;
59300;SDS011;45073;52.740;6.784;2023-04-01T03:42:51;9.68;;;5.07;;
59300;SDS011;45073;52.740;6.784;2023-04-01T03:45:17;9.18;;;4.82;;
59300;SDS011;45073;52.740;6.784;2023-04-01T03:47:43;10.07;;;4.32;;
59300;SDS011;45073;52.740;6.784;2023-04-01T03:50:08;9.23;;;4.18;;
59300;SDS011;45073;52.740;6.784;2023-04-01T03:52:34;8.93;;;4.32;;
59300;SDS011;45073;52.740;6.784;2023-04-01T03:55:00;8.57;;;4.47;;
59300;SDS011;45073;52.740;6.784;2023-04-01T03:57:26;8.88;;;4.20;;
59300;SDS011;45073;52.740;6.784;2023-04-01T03:59:52;9.88;;;4.80;;
59300;SDS011;45073;52.740;6.784;2023-04-01T04:02:18;10.75;;;4.97;;
59300;SDS011;45073;52.740;6.784;2023-04-01T04:04:43;9.38;;;5.40;;
59300;SDS011;45073;52.740;6.784;2023-04-01T04:07:09;8.55;;;4.93;;
59300;SDS011;45073;52.740;6.784;2023-04-01T04:09:35;10.65;;;4.95;;
59300;SDS011;45073;52.740;6.784;2023-04-01T04:12:01;11.07;;;5.68;;
59300;SDS011;45073;52.740;6.784;2023-04-01T04:14:27;11.77;;;8.80;;
59300;SDS011;45073;52.740;6.784;2023-04-01T04:16:52;9.43;;;5.05;;
59300;SDS011;45073;52.740;6.784;2023-04-01T04:19:18;8.32;;;4.25;;
59300;SDS011;45073;52.740;6.784;2023-04-01T04:21:44;8.85;;;3.88;;
59300;SDS011;45073;52.740;6.784;2023-04-01T04:24:09;9.57;;;4.38;;
59300;SDS011;45073;52.740;6.784;2023-04-01T04:26:35;9.38;;;3.95;;
59300;SDS011;45073;52.740;6.784;2023-04-01T04:29:01;8.88;;;4.07;;
59300;SDS011;45073;52.740;6.784;2023-04-01T04:31:27;9.88;;;4.40;;
59300;SDS011;45073;52.740;6.784;2023-04-01T04:33:53;8.38;;;3.80;;
59300;SDS011;45073;52.740;6.784;2023-04-01T04:36:19;8.82;;;3.60;;
59300;SDS011;45073;52.740;6.784;2023-04-01T04:38:45;8.48;;;4.13;;
59300;SDS011;45073;52.740;6.784;2023-04-01T04:41:12;8.40;;;4.13;;
59300;SDS011;45073;52.740;6.784;2023-04-01T04:43:39;8.80;;;4.32;;
59300;SDS011;45073;52.740;6.784;2023-04-01T04:46:09;15.43;;;4.15;;
59300;SDS011;45073;52.740;6.784;2023-04-01T04:48:36;9.05;;;4.18;;
59300;SDS011;45073;52.740;6.784;2023-04-01T04:51:01;8.93;;;4.15;;
59300;SDS011;45073;52.740;6.784;2023-04-01T04:53:28;9.65;;;4.57;;
59300;SDS011;45073;52.740;6.784;2023-04-01T04:55:53;7.80;;;3.95;;
59300;SDS011;45073;52.740;6.784;2023-04-01T04:58:19;9.07;;;4.25;;
59300;SDS011;45073;52.740;6.784;2023-04-01T05:00:45;9.20;;;4.03;;
59300;SDS011;45073;52.740;6.784;2023-04-01T05:03:11;9.55;;;3.85;;
59300;SDS011;45073;52.740;6.784;2023-04-01T05:05:38;9.27;;;3.90;;
59300;SDS011;45073;52.740;6.784;2023-04-01T05:08:04;8.95;;;4.03;;
59300;SDS011;45073;52.740;6.784;2023-04-01T05:10:30;8.30;;;3.78;;
59300;SDS011;45073;52.740;6.784;2023-04-01T05:12:56;9.10;;;4.70;;
59300;SDS011;45073;52.740;6.784;2023-04-01T05:15:22;10.88;;;5.55;;
59300;SDS011;45073;52.740;6.784;2023-04-01T05:17:48;10.45;;;5.28;;
59300;SDS011;45073;52.740;6.784;2023-04-01T05:20:14;10.32;;;5.10;;
59300;SDS011;45073;52.740;6.784;2023-04-01T05:22:40;9.82;;;4.97;;
59300;SDS011;45073;52.740;6.784;2023-04-01T05:25:06;10.02;;;4.53;;
59300;SDS011;45073;52.740;6.784;2023-04-01T05:27:32;9.35;;;4.50;;
59300;SDS011;45073;52.740;6.784;2023-04-01T05:29:57;9.80;;;4.65;;
59300;SDS011;45073;52.740;6.784;2023-04-01T05:32:23;9.80;;;7.50;;
59300;SDS011;45073;52.740;6.784;2023-04-01T05:34:53;9.05;;;4.47;;
59300;SDS011;45073;52.740;6.784;2023-04-01T05:37:19;8.52;;;4.00;;
59300;SDS011;45073;52.740;6.784;2023-04-01T05:39:45;9.05;;;3.95;;
59300;SDS011;45073;52.740;6.784;2023-04-01T05:42:10;9.13;;;4.15;;
59300;SDS011;45073;52.740;6.784;2023-04-01T05:44:36;9.13;;;4.43;;
59300;SDS011;45073;52.740;6.784;2023-04-01T05:47:03;10.23;;;4.75;;
59300;SDS011;45073;52.740;6.784;2023-04-01T05:49:29;9.15;;;4.75;;
59300;SDS011;45073;52.740;6.784;2023-04-01T05:51:55;8.80;;;4.25;;
59300;SDS011;45073;52.740;6.784;2023-04-01T05:54:21;9.68;;;4.43;;
59300;SDS011;45073;52.740;6.784;2023-04-01T05:56:46;9.73;;;4.70;;
59300;SDS011;45073;52.740;6.784;2023-04-01T05:59:12;9.55;;;4.90;;
59300;SDS011;45073;52.740;6.784;2023-04-01T06:01:38;9.63;;;5.15;;
59300;SDS011;45073;52.740;6.784;2023-04-01T06:04:04;8.98;;;4.90;;
59300;SDS011;45073;52.740;6.784;2023-04-01T06:06:30;9.38;;;5.10;;
59300;SDS011;45073;52.740;6.784;2023-04-01T06:08:58;10.25;;;5.10;;
59300;SDS011;45073;52.740;6.784;2023-04-01T06:26:11;10.48;;;5.72;;
59300;SDS011;45073;52.740;6.784;2023-04-01T06:33:46;13.60;;;7.10;;
59300;SDS011;45073;52.740;6.784;2023-04-01T06:36:42;12.65;;;7.55;;
59300;SDS011;45073;52.740;6.784;2023-04-01T06:42:14;12.40;;;7.20;;
59300;SDS011;45073;52.740;6.784;2023-04-01T06:54:03;11.07;;;6.05;;
59300;SDS011;45073;52.740;6.784;2023-04-01T06:56:45;11.27;;;5.90;;
59300;SDS011;45073;52.740;6.784;2023-04-01T06:59:22;11.25;;;5.72;;
59300;SDS011;45073;52.740;6.784;2023-04-01T07:01:53;12.77;;;5.80;;
59300;SDS011;45073;52.740;6.784;2023-04-01T07:04:22;11.02;;;5.68;;
59300;SDS011;45073;52.740;6.784;2023-04-01T07:09:49;9.82;;;5.45;;
59300;SDS011;45073;52.740;6.784;2023-04-01T07:12:24;9.93;;;5.53;;
59300;SDS011;45073;52.740;6.784;2023-04-01T07:14:55;10.77;;;5.63;;
59300;SDS011;45073;52.740;6.784;2023-04-01T07:17:26;10.68;;;5.47;;
59300;SDS011;45073;52.740;6.784;2023-04-01T07:20:02;12.63;;;6.35;;
59300;SDS011;45073;52.740;6.784;2023-04-01T07:23:05;10.68;;;5.53;;
59300;SDS011;45073;52.740;6.784;2023-04-01T07:25:44;11.07;;;5.82;;
59300;SDS011;45073;52.740;6.784;2023-04-01T07:28:14;12.38;;;6.55;;
59300;SDS011;45073;52.740;6.784;2023-04-01T07:30:55;13.13;;;7.40;;
59300;SDS011;45073;52.740;6.784;2023-04-01T07:50:04;13.23;;;6.57;;
59300;SDS011;45073;52.740;6.784;2023-04-01T07:52:47;12.50;;;6.13;;
59300;SDS011;45073;52.740;6.784;2023-04-01T07:56:09;12.70;;;6.68;;
59300;SDS011;45073;52.740;6.784;2023-04-01T08:06:14;15.73;;;8.48;;
59300;SDS011;45073;52.740;6.784;2023-04-01T08:11:22;16.13;;;8.00;;
59300;SDS011;45073;52.740;6.784;2023-04-01T08:14:08;14.48;;;7.20;;
59300;SDS011;45073;52.740;6.784;2023-04-01T08:19:21;16.08;;;8.75;;
59300;SDS011;45073;52.740;6.784;2023-04-01T08:22:11;15.77;;;8.77;;
59300;SDS011;45073;52.740;6.784;2023-04-01T08:24:45;15.02;;;7.65;;
59300;SDS011;45073;52.740;6.784;2023-04-01T08:27:57;13.13;;;6.60;;
59300;SDS011;45073;52.740;6.784;2023-04-01T08:32:59;12.75;;;6.75;;
59300;SDS011;45073;52.740;6.784;2023-04-01T08:36:08;13.00;;;7.30;;
59300;SDS011;45073;52.740;6.784;2023-04-01T08:41:33;14.23;;;11.25;;
59300;SDS011;45073;52.740;6.784;2023-04-01T08:44:01;10.57;;;5.43;;
59300;SDS011;45073;52.740;6.784;2023-04-01T08:57:19;9.52;;;6.97;;
59300;SDS011;45073;52.740;6.784;2023-04-01T09:08:28;7.47;;;2.78;;
59300;SDS011;45073;52.740;6.784;2023-04-01T09:14:17;8.52;;;5.30;;
59300;SDS011;45073;52.740;6.784;2023-04-01T09:25:29;4.45;;;1.52;;
59300;SDS011;45073;52.740;6.784;2023-04-01T09:28:10;6.13;;;2.35;;
59300;SDS011;45073;52.740;6.784;2023-04-01T09:36:38;7.82;;;4.00;;
59300;SDS011;45073;52.740;6.784;2023-04-01T09:42:25;6.72;;;2.38;;
59300;SDS011;45073;52.740;6.784;2023-04-01T09:56:40;8.90;;;3.92;;
59300;SDS011;45073;52.740;6.784;2023-04-01T10:01:54;8.85;;;4.18;;
59300;SDS011;45073;52.740;6.784;2023-04-01T10:32:58;7.80;;;3.75;;
59300;SDS011;45073;52.740;6.784;2023-04-01T10:44:29;8.32;;;5.40;;
59300;SDS011;45073;52.740;6.784;2023-04-01T11:04:31;8.13;;;3.90;;
59300;SDS011;45073;52.740;6.784;2023-04-01T11:10:29;8.35;;;3.30;;
59300;SDS011;45073;52.740;6.784;2023-04-01T11:23:54;8.15;;;3.75;;
59300;SDS011;45073;52.740;6.784;2023-04-01T11:29:36;7.85;;;4.13;;
59300;SDS011;45073;52.740;6.784;2023-04-01T11:32:29;9.55;;;4.45;;
59300;SDS011;45073;52.740;6.784;2023-04-01T11:37:55;8.93;;;5.25;;
59300;SDS011;45073;52.740;6.784;2023-04-01T11:40:42;10.00;;;7.32;;
59300;SDS011;45073;52.740;6.784;2023-04-01T11:46:17;7.50;;;5.57;;
59300;SDS011;45073;52.740;6.784;2023-04-01T12:14:41;7.25;;;3.38;;
59300;SDS011;45073;52.740;6.784;2023-04-01T12:28:15;8.25;;;3.85;;
59300;SDS011;45073;52.740;6.784;2023-04-01T12:31:12;7.38;;;2.40;;
59300;SDS011;45073;52.740;6.784;2023-04-01T12:37:10;5.72;;;2.30;;
59300;SDS011;45073;52.740;6.784;2023-04-01T12:40:14;6.13;;;2.40;;
59300;SDS011;45073;52.740;6.784;2023-04-01T12:43:05;5.18;;;2.10;;
59300;SDS011;45073;52.740;6.784;2023-04-01T12:59:24;5.35;;;2.50;;
59300;SDS011;45073;52.740;6.784;2023-04-01T13:04:48;5.72;;;2.25;;
59300;SDS011;45073;52.740;6.784;2023-04-01T13:13:27;4.90;;;2.25;;
59300;SDS011;45073;52.740;6.784;2023-04-01T13:16:12;5.75;;;3.45;;
59300;SDS011;45073;52.740;6.784;2023-04-01T13:19:25;5.70;;;2.35;;
59300;SDS011;45073;52.740;6.784;2023-04-01T13:21:59;6.95;;;2.33;;
59300;SDS011;45073;52.740;6.784;2023-04-01T13:32:36;5.70;;;2.33;;
59300;SDS011;45073;52.740;6.784;2023-04-01T13:44:14;6.63;;;2.63;;
59300;SDS011;45073;52.740;6.784;2023-04-01T14:06:00;5.38;;;2.40;;
59300;SDS011;45073;52.740;6.784;2023-04-01T14:19:48;5.38;;;2.30;;
59300;SDS011;45073;52.740;6.784;2023-04-01T14:30:38;6.35;;;2.90;;
59300;SDS011;45073;52.740;6.784;2023-04-01T14:33:19;6.57;;;2.72;;
59300;SDS011;45073;52.740;6.784;2023-04-01T14:36:33;6.55;;;2.60;;
59300;SDS011;45073;52.740;6.784;2023-04-01T14:50:21;7.00;;;3.72;;
59300;SDS011;45073;52.740;6.784;2023-04-01T14:55:52;6.47;;;3.47;;
59300;SDS011;45073;52.740;6.784;2023-04-01T14:58:21;7.40;;;3.75;;
59300;SDS011;45073;52.740;6.784;2023-04-01T15:09:17;7.45;;;3.65;;
59300;SDS011;45073;52.740;6.784;2023-04-01T15:14:48;6.60;;;3.50;;
59300;SDS011;45073;52.740;6.784;2023-04-01T15:23:13;6.40;;;3.10;;
59300;SDS011;45073;52.740;6.784;2023-04-01T15:26:08;6.82;;;3.35;;
59300;SDS011;45073;52.740;6.784;2023-04-01T15:28:39;6.13;;;3.03;;
59300;SDS011;45073;52.740;6.784;2023-04-01T15:31:13;5.50;;;2.80;;
59300;SDS011;45073;52.740;6.784;2023-04-01T15:36:30;6.05;;;2.70;;
59300;SDS011;45073;52.740;6.784;2023-04-01T15:41:43;7.55;;;3.65;;
59300;SDS011;45073;52.740;6.784;2023-04-01T15:49:57;6.25;;;3.67;;
59300;SDS011;45073;52.740;6.784;2023-04-01T15:58:18;5.93;;;2.78;;
59300;SDS011;45073;52.740;6.784;2023-04-01T16:01:07;5.53;;;2.53;;
59300;SDS011;45073;52.740;6.784;2023-04-01T16:03:52;5.38;;;2.33;;
59300;SDS011;45073;52.740;6.784;2023-04-01T16:06:53;5.32;;;2.25;;
59300;SDS011;45073;52.740;6.784;2023-04-01T16:09:50;6.53;;;2.55;;
59300;SDS011;45073;52.740;6.784;2023-04-01T16:15:25;4.75;;;2.17;;
59300;SDS011;45073;52.740;6.784;2023-04-01T16:18:17;4.53;;;2.05;;
59300;SDS011;45073;52.740;6.784;2023-04-01T16:24:00;4.40;;;1.95;;
59300;SDS011;45073;52.740;6.784;2023-04-01T16:26:39;4.15;;;1.80;;
59300;SDS011;45073;52.740;6.784;2023-04-01T16:31:48;5.10;;;2.40;;
59300;SDS011;45073;52.740;6.784;2023-04-01T16:34:37;4.82;;;2.20;;
59300;SDS011;45073;52.740;6.784;2023-04-01T16:37:44;4.03;;;1.85;;
59300;SDS011;45073;52.740;6.784;2023-04-01T16:40:23;3.95;;;2.08;;
59300;SDS011;45073;52.740;6.784;2023-04-01T16:43:44;5.00;;;2.03;;
59300;SDS011;45073;52.740;6.784;2023-04-01T16:49:04;4.97;;;1.90;;
59300;SDS011;45073;52.740;6.784;2023-04-01T16:54:26;4.82;;;2.00;;
59300;SDS011;45073;52.740;6.784;2023-04-01T16:57:02;4.45;;;1.95;;
59300;SDS011;45073;52.740;6.784;2023-04-01T17:08:23;4.57;;;1.85;;
59300;SDS011;45073;52.740;6.784;2023-04-01T17:13:52;6.28;;;2.40;;
59300;SDS011;45073;52.740;6.784;2023-04-01T17:42:04;6.65;;;2.97;;
59300;SDS011;45073;52.740;6.784;2023-04-01T17:45:08;7.10;;;3.40;;
59300;SDS011;45073;52.740;6.784;2023-04-01T17:50:51;7.95;;;3.45;;
59300;SDS011;45073;52.740;6.784;2023-04-01T17:58:29;6.18;;;3.05;;
59300;SDS011;45073;52.740;6.784;2023-04-01T18:03:53;7.10;;;3.33;;
59300;SDS011;45073;52.740;6.784;2023-04-01T18:14:50;8.55;;;3.58;;
59300;SDS011;45073;52.740;6.784;2023-04-01T18:20:49;7.82;;;3.97;;
59300;SDS011;45073;52.740;6.784;2023-04-01T18:24:00;7.15;;;3.95;;
59300;SDS011;45073;52.740;6.784;2023-04-01T18:26:39;8.30;;;4.25;;
59300;SDS011;45073;52.740;6.784;2023-04-01T18:29:50;7.63;;;4.32;;
59300;SDS011;45073;52.740;6.784;2023-04-01T18:32:11;8.45;;;4.32;;
59300;SDS011;45073;52.740;6.784;2023-04-01T18:34:58;8.93;;;4.32;;
59300;SDS011;45073;52.740;6.784;2023-04-01T18:37:55;8.63;;;4.00;;
59300;SDS011;45073;52.740;6.784;2023-04-01T18:43:36;8.38;;;4.07;;
59300;SDS011;45073;52.740;6.784;2023-04-01T18:51:58;7.78;;;3.85;;
59300;SDS011;45073;52.740;6.784;2023-04-01T18:54:46;8.48;;;4.20;;
59300;SDS011;45073;52.740;6.784;2023-04-01T18:57:43;8.55;;;4.05;;
59300;SDS011;45073;52.740;6.784;2023-04-01T19:00:16;8.38;;;4.72;;
59300;SDS011;45073;52.740;6.784;2023-04-01T19:03:12;9.98;;;5.03;;
59300;SDS011;45073;52.740;6.784;2023-04-01T19:05:46;9.07;;;4.95;;
59300;SDS011;45073;52.740;6.784;2023-04-01T19:14:05;9.73;;;5.97;;
59300;SDS011;45073;52.740;6.784;2023-04-01T19:21:57;11.90;;;5.47;;
59300;SDS011;45073;52.740;6.784;2023-04-01T19:24:41;10.23;;;5.32;;
59300;SDS011;45073;52.740;6.784;2023-04-01T19:27:25;9.32;;;5.63;;
59300;SDS011;45073;52.740;6.784;2023-04-01T19:35:48;9.55;;;5.05;;
59300;SDS011;45073;52.740;6.784;2023-04-01T19:43:50;11.38;;;6.05;;
59300;SDS011;45073;52.740;6.784;2023-04-01T19:49:15;9.05;;;5.20;;
59300;SDS011;45073;52.740;6.784;2023-04-01T19:52:02;9.18;;;4.97;;
59300;SDS011;45073;52.740;6.784;2023-04-01T19:57:47;10.90;;;5.15;;
59300;SDS011;45073;52.740;6.784;2023-04-01T20:00:39;9.90;;;4.88;;
59300;SDS011;45073;52.740;6.784;2023-04-01T20:11:06;8.75;;;4.65;;
59300;SDS011;45073;52.740;6.784;2023-04-01T20:16:19;9.90;;;4.97;;
59300;SDS011;45073;52.740;6.784;2023-04-01T20:19:00;9.23;;;4.45;;
59300;SDS011;45073;52.740;6.784;2023-04-01T20:21:33;9.60;;;5.13;;
59300;SDS011;45073;52.740;6.784;2023-04-01T20:27:01;8.50;;;4.93;;
59300;SDS011;45073;52.740;6.784;2023-04-01T20:32:30;10.07;;;4.88;;
59300;SDS011;45073;52.740;6.784;2023-04-01T20:40:45;9.30;;;4.20;;
59300;SDS011;45073;52.740;6.784;2023-04-01T20:43:19;10.50;;;5.13;;
59300;SDS011;45073;52.740;6.784;2023-04-01T20:46:08;8.70;;;4.70;;
59300;SDS011;45073;52.740;6.784;2023-04-01T20:51:29;9.55;;;4.60;;
59300;SDS011;45073;52.740;6.784;2023-04-01T21:00:02;9.70;;;4.97;;
59300;SDS011;45073;52.740;6.784;2023-04-01T21:05:22;11.10;;;5.35;;
59300;SDS011;45073;52.740;6.784;2023-04-01T21:10:45;9.70;;;4.85;;
59300;SDS011;45073;52.740;6.784;2023-04-01T21:13:25;9.23;;;4.93;;
59300;SDS011;45073;52.740;6.784;2023-04-01T21:18:57;10.63;;;5.03;;
59300;SDS011;45073;52.740;6.784;2023-04-01T21:22:47;9.05;;;4.85;;
59300;SDS011;45073;52.740;6.784;2023-04-01T21:27:43;12.43;;;6.05;;
59300;SDS011;45073;52.740;6.784;2023-04-01T21:33:07;14.23;;;6.22;;
59300;SDS011;45073;52.740;6.784;2023-04-01T21:55:37;9.90;;;5.45;;
59300;SDS011;45073;52.740;6.784;2023-04-01T22:01:21;12.23;;;5.75;;
59300;SDS011;45073;52.740;6.784;2023-04-01T22:03:52;14.00;;;5.57;;
59300;SDS011;45073;52.740;6.784;2023-04-01T22:11:59;13.63;;;6.55;;
59300;SDS011;45073;52.740;6.784;2023-04-01T22:25:49;12.75;;;5.50;;
59300;SDS011;45073;52.740;6.784;2023-04-01T22:31:34;11.35;;;5.70;;
59300;SDS011;45073;52.740;6.784;2023-04-01T22:45:21;8.93;;;4.38;;
59300;SDS011;45073;52.740;6.784;2023-04-01T22:51:18;10.65;;;5.05;;
59300;SDS011;45073;52.740;6.784;2023-04-01T22:57:03;11.33;;;5.43;;
59300;SDS011;45073;52.740;6.784;2023-04-01T23:02:21;10.88;;;5.57;;
59300;SDS011;45073;52.740;6.784;2023-04-01T23:04:54;9.68;;;4.82;;
59300;SDS011;45073;52.740;6.784;2023-04-01T23:10:22;11.82;;;5.25;;
59300;SDS011;45073;52.740;6.784;2023-04-01T23:12:53;11.18;;;4.75;;
59300;SDS011;45073;52.740;6.784;2023-04-01T23:15:23;11.77;;;5.53;;
59300;SDS011;45073;52.740;6.784;2023-04-01T23:17:51;9.77;;;4.80;;
59300;SDS011;45073;52.740;6.784;2023-04-01T23:21:00;11.32;;;5.00;;
59300;SDS011;45073;52.740;6.784;2023-04-01T23:23:52;10.40;;;5.78;;
59300;SDS011;45073;52.740;6.784;2023-04-01T23:26:36;10.02;;;4.57;;
59300;SDS011;45073;52.740;6.784;2023-04-01T23:29:13;10.15;;;4.50;;
59300;SDS011;45073;52.740;6.784;2023-04-01T23:41:47;10.15;;;4.70;;
59300;SDS011;45073;52.740;6.784;2023-04-01T23:44:14;10.45;;;4.15;;
59300;SDS011;45073;52.740;6.784;2023-04-01T23:46:41;11.43;;;4.45;;
59300;SDS011;45073;52.740;6.784;2023-04-01T23:49:33;10.70;;;4.20;;
59300;SDS011;45073;52.740;6.784;2023-04-01T23:52:03;9.45;;;4.30;;
59300;SDS011;45073;52.740;6.784;2023-04-01T23:54:41;10.38;;;3.92;;
59300;SDS011;45073;52.740;6.784;2023-04-01T23:57:59;10.48;;;4.20;;
